sensor_id;sensor_type;location;lat;lon;timestamp;P1;durP1;ratioP1;P2;durP2;ratioP2
6392;SDS011;3229;42.674;23.282;2022-11-25T00:02:17;2.80;;;2.50;;
6392;SDS011;3229;42.674;23.282;2022-11-25T00:04:44;2.50;;;2.10;;
6392;SDS011;3229;42.674;23.282;2022-11-25T00:07:10;2.50;;;2.30;;
6392;SDS011;3229;42.674;23.282;2022-11-25T00:09:37;2.53;;;2.33;;
6392;SDS011;3229;42.674;23.282;2022-11-25T00:12:04;2.43;;;2.23;;
6392;SDS011;3229;42.674;23.282;2022-11-25T00:14:31;2.00;;;1.90;;
6392;SDS011;3229;42.674;23.282;2022-11-25T00:16:58;2.60;;;2.40;;
6392;SDS011;3229;42.674;23.282;2022-11-25T00:19:26;2.40;;;2.20;;
6392;SDS011;3229;42.674;23.282;2022-11-25T00:21:53;2.60;;;2.40;;
6392;SDS011;3229;42.674;23.282;2022-11-25T00:24:20;2.50;;;2.30;;
6392;SDS011;3229;42.674;23.282;2022-11-25T00:26:46;2.90;;;2.40;;
6392;SDS011;3229;42.674;23.282;2022-11-25T00:29:13;3.17;;;2.17;;
6392;SDS011;3229;42.674;23.282;2022-11-25T00:31:40;2.50;;;2.30;;
6392;SDS011;3229;42.674;23.282;2022-11-25T00:34:09;2.80;;;2.50;;
6392;SDS011;3229;42.674;23.282;2022-11-25T00:36:39;3.50;;;2.10;;
6392;SDS011;3229;42.674;23.282;2022-11-25T00:39:06;2.60;;;2.20;;
6392;SDS011;3229;42.674;23.282;2022-11-25T00:41:36;2.37;;;2.20;;
6392;SDS011;3229;42.674;23.282;2022-11-25T00:44:20;3.90;;;2.47;;
6392;SDS011;3229;42.674;23.282;2022-11-25T00:47:04;2.77;;;2.40;;
6392;SDS011;3229;42.674;23.282;2022-11-25T00:49:32;2.67;;;2.47;;
6392;SDS011;3229;42.674;23.282;2022-11-25T00:52:01;2.57;;;2.37;;
6392;SDS011;3229;42.674;23.282;2022-11-25T00:54:28;3.13;;;2.63;;
6392;SDS011;3229;42.674;23.282;2022-11-25T00:56:55;3.10;;;2.27;;
6392;SDS011;3229;42.674;23.282;2022-11-25T00:59:23;2.20;;;2.00;;
6392;SDS011;3229;42.674;23.282;2022-11-25T01:01:49;3.57;;;2.63;;
6392;SDS011;3229;42.674;23.282;2022-11-25T01:04:16;4.03;;;2.63;;
6392;SDS011;3229;42.674;23.282;2022-11-25T01:06:43;2.70;;;2.50;;
6392;SDS011;3229;42.674;23.282;2022-11-25T01:09:11;2.80;;;2.60;;
6392;SDS011;3229;42.674;23.282;2022-11-25T01:11:38;4.00;;;2.80;;
6392;SDS011;3229;42.674;23.282;2022-11-25T01:14:06;4.07;;;2.63;;
6392;SDS011;3229;42.674;23.282;2022-11-25T01:16:33;2.60;;;2.40;;
6392;SDS011;3229;42.674;23.282;2022-11-25T01:19:00;3.03;;;2.57;;
6392;SDS011;3229;42.674;23.282;2022-11-25T01:21:28;3.73;;;2.27;;
6392;SDS011;3229;42.674;23.282;2022-11-25T01:23:57;2.90;;;2.57;;
6392;SDS011;3229;42.674;23.282;2022-11-25T01:26:26;2.63;;;2.43;;
6392;SDS011;3229;42.674;23.282;2022-11-25T01:28:54;2.60;;;2.40;;
6392;SDS011;3229;42.674;23.282;2022-11-25T01:31:22;2.43;;;2.20;;
6392;SDS011;3229;42.674;23.282;2022-11-25T01:33:54;2.17;;;2.07;;
6392;SDS011;3229;42.674;23.282;2022-11-25T01:36:22;2.97;;;2.63;;
6392;SDS011;3229;42.674;23.282;2022-11-25T01:38:50;4.93;;;2.80;;
6392;SDS011;3229;42.674;23.282;2022-11-25T01:41:18;2.97;;;2.70;;
6392;SDS011;3229;42.674;23.282;2022-11-25T01:46:41;3.23;;;2.47;;
6392;SDS011;3229;42.674;23.282;2022-11-25T01:49:13;3.03;;;2.63;;
6392;SDS011;3229;42.674;23.282;2022-11-25T01:51:43;2.67;;;2.47;;
6392;SDS011;3229;42.674;23.282;2022-11-25T01:54:15;3.10;;;2.80;;
6392;SDS011;3229;42.674;23.282;2022-11-25T01:56:48;2.70;;;2.50;;
6392;SDS011;3229;42.674;23.282;2022-11-25T01:59:19;2.97;;;2.30;;
6392;SDS011;3229;42.674;23.282;2022-11-25T02:01:46;2.50;;;2.30;;
6392;SDS011;3229;42.674;23.282;2022-11-25T02:04:14;3.33;;;2.70;;
6392;SDS011;3229;42.674;23.282;2022-11-25T02:06:46;3.73;;;2.60;;
6392;SDS011;3229;42.674;23.282;2022-11-25T02:09:18;2.67;;;2.47;;
6392;SDS011;3229;42.674;23.282;2022-11-25T02:11:47;2.53;;;2.33;;
6392;SDS011;3229;42.674;23.282;2022-11-25T02:14:16;2.17;;;2.07;;
6392;SDS011;3229;42.674;23.282;2022-11-25T02:16:46;2.67;;;2.47;;
6392;SDS011;3229;42.674;23.282;2022-11-25T02:19:15;2.40;;;2.20;;
6392;SDS011;3229;42.674;23.282;2022-11-25T02:21:49;2.47;;;2.27;;
6392;SDS011;3229;42.674;23.282;2022-11-25T02:24:21;2.23;;;2.07;;
6392;SDS011;3229;42.674;23.282;2022-11-25T02:26:59;2.63;;;2.40;;
6392;SDS011;3229;42.674;23.282;2022-11-25T02:29:26;2.30;;;2.10;;
6392;SDS011;3229;42.674;23.282;2022-11-25T02:31:53;2.37;;;2.20;;
6392;SDS011;3229;42.674;23.282;2022-11-25T02:34:20;2.53;;;2.33;;
6392;SDS011;3229;42.674;23.282;2022-11-25T02:36:48;2.23;;;1.97;;
6392;SDS011;3229;42.674;23.282;2022-11-25T02:39:15;2.00;;;1.90;;
6392;SDS011;3229;42.674;23.282;2022-11-25T02:41:45;3.50;;;2.27;;
6392;SDS011;3229;42.674;23.282;2022-11-25T02:44:17;2.97;;;2.17;;
6392;SDS011;3229;42.674;23.282;2022-11-25T02:46:44;2.87;;;2.30;;
6392;SDS011;3229;42.674;23.282;2022-11-25T02:49:11;2.57;;;2.37;;
6392;SDS011;3229;42.674;23.282;2022-11-25T02:51:39;2.50;;;2.30;;
6392;SDS011;3229;42.674;23.282;2022-11-25T02:54:09;2.73;;;2.43;;
6392;SDS011;3229;42.674;23.282;2022-11-25T02:56:36;2.20;;;2.03;;
6392;SDS011;3229;42.674;23.282;2022-11-25T02:59:04;2.30;;;2.10;;
6392;SDS011;3229;42.674;23.282;2022-11-25T03:01:33;2.00;;;1.90;;
6392;SDS011;3229;42.674;23.282;2022-11-25T03:04:00;2.10;;;2.00;;
6392;SDS011;3229;42.674;23.282;2022-11-25T03:06:27;2.00;;;1.90;;
6392;SDS011;3229;42.674;23.282;2022-11-25T03:08:55;2.53;;;2.30;;
6392;SDS011;3229;42.674;23.282;2022-11-25T03:11:22;2.40;;;2.20;;
6392;SDS011;3229;42.674;23.282;2022-11-25T03:14:10;2.40;;;2.20;;
6392;SDS011;3229;42.674;23.282;2022-11-25T03:16:38;2.17;;;2.07;;
6392;SDS011;3229;42.674;23.282;2022-11-25T03:19:05;2.17;;;2.00;;
6392;SDS011;3229;42.674;23.282;2022-11-25T03:21:32;2.83;;;2.33;;
6392;SDS011;3229;42.674;23.282;2022-11-25T03:23:59;2.95;;;2.20;;
6392;SDS011;3229;42.674;23.282;2022-11-25T03:26:26;2.23;;;2.03;;
6392;SDS011;3229;42.674;23.282;2022-11-25T03:28:53;2.83;;;2.20;;
6392;SDS011;3229;42.674;23.282;2022-11-25T03:31:20;2.77;;;2.43;;
6392;SDS011;3229;42.674;23.282;2022-11-25T03:33:48;2.43;;;2.10;;
6392;SDS011;3229;42.674;23.282;2022-11-25T03:36:15;2.33;;;2.17;;
6392;SDS011;3229;42.674;23.282;2022-11-25T03:38:42;4.13;;;2.20;;
6392;SDS011;3229;42.674;23.282;2022-11-25T03:41:08;3.97;;;2.30;;
6392;SDS011;3229;42.674;23.282;2022-11-25T03:43:35;2.63;;;2.43;;
6392;SDS011;3229;42.674;23.282;2022-11-25T03:46:02;2.60;;;2.40;;
6392;SDS011;3229;42.674;23.282;2022-11-25T03:48:29;2.67;;;2.47;;
6392;SDS011;3229;42.674;23.282;2022-11-25T03:50:57;2.63;;;2.40;;
6392;SDS011;3229;42.674;23.282;2022-11-25T03:53:24;2.70;;;2.50;;
6392;SDS011;3229;42.674;23.282;2022-11-25T03:55:51;3.23;;;2.43;;
6392;SDS011;3229;42.674;23.282;2022-11-25T03:58:17;3.07;;;2.20;;
6392;SDS011;3229;42.674;23.282;2022-11-25T04:00:44;2.37;;;2.23;;
6392;SDS011;3229;42.674;23.282;2022-11-25T04:03:11;2.53;;;2.33;;
6392;SDS011;3229;42.674;23.282;2022-11-25T04:05:38;3.33;;;2.30;;
6392;SDS011;3229;42.674;23.282;2022-11-25T04:08:06;1.90;;;1.80;;
6392;SDS011;3229;42.674;23.282;2022-11-25T04:10:33;2.23;;;2.10;;
6392;SDS011;3229;42.674;23.282;2022-11-25T04:13:00;2.00;;;1.90;;
6392;SDS011;3229;42.674;23.282;2022-11-25T04:15:26;2.43;;;2.20;;
6392;SDS011;3229;42.674;23.282;2022-11-25T04:17:53;2.40;;;2.20;;
6392;SDS011;3229;42.674;23.282;2022-11-25T04:20:20;2.80;;;2.23;;
6392;SDS011;3229;42.674;23.282;2022-11-25T04:22:47;2.30;;;2.10;;
6392;SDS011;3229;42.674;23.282;2022-11-25T04:25:15;2.00;;;1.90;;
6392;SDS011;3229;42.674;23.282;2022-11-25T04:27:42;2.43;;;2.23;;
6392;SDS011;3229;42.674;23.282;2022-11-25T04:30:09;2.33;;;2.20;;
6392;SDS011;3229;42.674;23.282;2022-11-25T04:32:37;2.27;;;2.13;;
6392;SDS011;3229;42.674;23.282;2022-11-25T04:35:04;2.20;;;2.00;;
6392;SDS011;3229;42.674;23.282;2022-11-25T04:37:31;2.63;;;2.20;;
6392;SDS011;3229;42.674;23.282;2022-11-25T04:39:58;2.33;;;1.90;;
6392;SDS011;3229;42.674;23.282;2022-11-25T04:42:26;2.60;;;2.40;;
6392;SDS011;3229;42.674;23.282;2022-11-25T04:45:01;2.57;;;2.33;;
6392;SDS011;3229;42.674;23.282;2022-11-25T04:47:29;2.50;;;2.13;;
6392;SDS011;3229;42.674;23.282;2022-11-25T04:49:56;2.00;;;1.90;;
6392;SDS011;3229;42.674;23.282;2022-11-25T04:52:23;2.40;;;2.20;;
6392;SDS011;3229;42.674;23.282;2022-11-25T04:54:50;4.03;;;2.30;;
6392;SDS011;3229;42.674;23.282;2022-11-25T04:57:19;3.17;;;2.00;;
6392;SDS011;3229;42.674;23.282;2022-11-25T04:59:47;2.13;;;2.03;;
6392;SDS011;3229;42.674;23.282;2022-11-25T05:02:13;2.37;;;2.17;;
6392;SDS011;3229;42.674;23.282;2022-11-25T05:04:42;2.53;;;2.33;;
6392;SDS011;3229;42.674;23.282;2022-11-25T05:07:10;2.30;;;2.10;;
6392;SDS011;3229;42.674;23.282;2022-11-25T05:09:37;2.30;;;2.03;;
6392;SDS011;3229;42.674;23.282;2022-11-25T05:12:03;2.40;;;2.20;;
6392;SDS011;3229;42.674;23.282;2022-11-25T05:14:31;2.13;;;2.00;;
6392;SDS011;3229;42.674;23.282;2022-11-25T05:17:01;2.50;;;2.27;;
6392;SDS011;3229;42.674;23.282;2022-11-25T05:19:28;2.20;;;2.10;;
6392;SDS011;3229;42.674;23.282;2022-11-25T05:22:00;2.37;;;2.00;;
6392;SDS011;3229;42.674;23.282;2022-11-25T05:24:27;2.67;;;2.20;;
6392;SDS011;3229;42.674;23.282;2022-11-25T05:26:54;2.13;;;2.03;;
6392;SDS011;3229;42.674;23.282;2022-11-25T05:29:21;7.27;;;2.30;;
6392;SDS011;3229;42.674;23.282;2022-11-25T05:31:48;2.47;;;2.27;;
6392;SDS011;3229;42.674;23.282;2022-11-25T05:34:16;2.73;;;2.53;;
6392;SDS011;3229;42.674;23.282;2022-11-25T05:36:43;2.03;;;1.93;;
6392;SDS011;3229;42.674;23.282;2022-11-25T05:39:10;2.13;;;1.97;;
6392;SDS011;3229;42.674;23.282;2022-11-25T05:41:37;2.20;;;2.00;;
6392;SDS011;3229;42.674;23.282;2022-11-25T05:44:03;2.30;;;2.10;;
6392;SDS011;3229;42.674;23.282;2022-11-25T05:46:30;2.10;;;2.00;;
6392;SDS011;3229;42.674;23.282;2022-11-25T05:48:57;2.37;;;2.23;;
6392;SDS011;3229;42.674;23.282;2022-11-25T05:51:25;3.93;;;2.40;;
6392;SDS011;3229;42.674;23.282;2022-11-25T05:53:54;2.30;;;2.13;;
6392;SDS011;3229;42.674;23.282;2022-11-25T05:56:22;2.00;;;1.90;;
6392;SDS011;3229;42.674;23.282;2022-11-25T05:58:49;5.43;;;2.37;;
6392;SDS011;3229;42.674;23.282;2022-11-25T06:01:17;6.97;;;1.87;;
6392;SDS011;3229;42.674;23.282;2022-11-25T06:03:44;2.80;;;2.40;;
6392;SDS011;3229;42.674;23.282;2022-11-25T06:06:11;4.63;;;2.43;;
6392;SDS011;3229;42.674;23.282;2022-11-25T06:08:40;5.73;;;2.00;;
6392;SDS011;3229;42.674;23.282;2022-11-25T06:11:09;2.10;;;2.00;;
6392;SDS011;3229;42.674;23.282;2022-11-25T06:13:37;3.13;;;2.10;;
6392;SDS011;3229;42.674;23.282;2022-11-25T06:16:07;6.57;;;2.40;;
6392;SDS011;3229;42.674;23.282;2022-11-25T06:18:35;5.77;;;2.30;;
6392;SDS011;3229;42.674;23.282;2022-11-25T06:21:03;3.63;;;2.20;;
6392;SDS011;3229;42.674;23.282;2022-11-25T06:23:31;2.40;;;2.20;;
6392;SDS011;3229;42.674;23.282;2022-11-25T06:26:03;3.03;;;2.50;;
6392;SDS011;3229;42.674;23.282;2022-11-25T06:28:31;2.40;;;2.20;;
6392;SDS011;3229;42.674;23.282;2022-11-25T06:31:03;2.70;;;2.17;;
6392;SDS011;3229;42.674;23.282;2022-11-25T06:33:31;2.87;;;2.67;;
6392;SDS011;3229;42.674;23.282;2022-11-25T06:35:58;2.93;;;2.60;;
6392;SDS011;3229;42.674;23.282;2022-11-25T06:38:27;3.03;;;2.10;;
6392;SDS011;3229;42.674;23.282;2022-11-25T06:40:57;2.70;;;2.37;;
6392;SDS011;3229;42.674;23.282;2022-11-25T06:43:26;2.90;;;2.43;;
6392;SDS011;3229;42.674;23.282;2022-11-25T06:45:53;2.53;;;2.33;;
6392;SDS011;3229;42.674;23.282;2022-11-25T06:48:20;2.20;;;2.10;;
6392;SDS011;3229;42.674;23.282;2022-11-25T06:50:54;4.40;;;2.97;;
6392;SDS011;3229;42.674;23.282;2022-11-25T06:53:21;2.60;;;2.40;;
6392;SDS011;3229;42.674;23.282;2022-11-25T06:55:48;2.60;;;2.40;;
6392;SDS011;3229;42.674;23.282;2022-11-25T06:58:15;3.87;;;2.70;;
6392;SDS011;3229;42.674;23.282;2022-11-25T07:00:43;2.93;;;2.73;;
6392;SDS011;3229;42.674;23.282;2022-11-25T07:03:10;3.10;;;2.80;;
6392;SDS011;3229;42.674;23.282;2022-11-25T07:05:37;3.30;;;2.97;;
6392;SDS011;3229;42.674;23.282;2022-11-25T07:08:04;4.77;;;2.77;;
6392;SDS011;3229;42.674;23.282;2022-11-25T07:10:32;2.77;;;2.57;;
6392;SDS011;3229;42.674;23.282;2022-11-25T07:12:59;3.60;;;3.03;;
6392;SDS011;3229;42.674;23.282;2022-11-25T07:15:26;3.23;;;2.60;;
6392;SDS011;3229;42.674;23.282;2022-11-25T07:17:54;4.50;;;2.93;;
6392;SDS011;3229;42.674;23.282;2022-11-25T07:20:22;2.60;;;2.40;;
6392;SDS011;3229;42.674;23.282;2022-11-25T07:22:51;5.83;;;2.90;;
6392;SDS011;3229;42.674;23.282;2022-11-25T07:25:18;2.83;;;2.53;;
6392;SDS011;3229;42.674;23.282;2022-11-25T07:27:45;2.90;;;2.70;;
6392;SDS011;3229;42.674;23.282;2022-11-25T07:30:12;4.70;;;2.63;;
6392;SDS011;3229;42.674;23.282;2022-11-25T07:32:39;3.17;;;2.50;;
6392;SDS011;3229;42.674;23.282;2022-11-25T07:35:08;3.90;;;3.17;;
6392;SDS011;3229;42.674;23.282;2022-11-25T07:37:34;2.90;;;2.70;;
6392;SDS011;3229;42.674;23.282;2022-11-25T07:40:01;4.43;;;2.97;;
6392;SDS011;3229;42.674;23.282;2022-11-25T07:42:29;3.00;;;2.70;;
6392;SDS011;3229;42.674;23.282;2022-11-25T07:45:06;2.90;;;2.53;;
6392;SDS011;3229;42.674;23.282;2022-11-25T07:47:33;2.87;;;2.47;;
6392;SDS011;3229;42.674;23.282;2022-11-25T07:50:00;4.30;;;2.97;;
6392;SDS011;3229;42.674;23.282;2022-11-25T07:52:28;4.27;;;2.80;;
6392;SDS011;3229;42.674;23.282;2022-11-25T07:54:55;2.60;;;2.40;;
6392;SDS011;3229;42.674;23.282;2022-11-25T07:57:22;3.80;;;2.53;;
6392;SDS011;3229;42.674;23.282;2022-11-25T07:59:49;2.93;;;2.57;;
6392;SDS011;3229;42.674;23.282;2022-11-25T08:02:16;5.17;;;2.63;;
6392;SDS011;3229;42.674;23.282;2022-11-25T08:04:43;2.90;;;2.70;;
6392;SDS011;3229;42.674;23.282;2022-11-25T08:07:09;2.67;;;2.47;;
6392;SDS011;3229;42.674;23.282;2022-11-25T08:09:38;3.30;;;2.60;;
6392;SDS011;3229;42.674;23.282;2022-11-25T08:12:05;3.90;;;2.70;;
6392;SDS011;3229;42.674;23.282;2022-11-25T08:14:31;2.70;;;2.50;;
6392;SDS011;3229;42.674;23.282;2022-11-25T08:16:59;2.70;;;2.50;;
6392;SDS011;3229;42.674;23.282;2022-11-25T08:19:27;4.50;;;2.87;;
6392;SDS011;3229;42.674;23.282;2022-11-25T08:21:54;2.80;;;2.60;;
6392;SDS011;3229;42.674;23.282;2022-11-25T08:24:20;2.80;;;2.50;;
6392;SDS011;3229;42.674;23.282;2022-11-25T08:26:49;3.13;;;2.63;;
6392;SDS011;3229;42.674;23.282;2022-11-25T08:29:16;2.70;;;2.50;;
6392;SDS011;3229;42.674;23.282;2022-11-25T08:31:44;6.07;;;2.93;;
6392;SDS011;3229;42.674;23.282;2022-11-25T08:34:15;3.20;;;2.90;;
6392;SDS011;3229;42.674;23.282;2022-11-25T08:36:44;4.30;;;2.70;;
6392;SDS011;3229;42.674;23.282;2022-11-25T08:39:11;3.17;;;2.73;;
6392;SDS011;3229;42.674;23.282;2022-11-25T08:41:38;3.57;;;2.80;;
6392;SDS011;3229;42.674;23.282;2022-11-25T08:44:06;2.77;;;2.50;;
6392;SDS011;3229;42.674;23.282;2022-11-25T08:46:36;2.90;;;2.70;;
6392;SDS011;3229;42.674;23.282;2022-11-25T08:49:04;3.03;;;2.73;;
6392;SDS011;3229;42.674;23.282;2022-11-25T08:51:33;3.00;;;2.40;;
6392;SDS011;3229;42.674;23.282;2022-11-25T08:54:01;2.80;;;2.47;;
6392;SDS011;3229;42.674;23.282;2022-11-25T08:56:29;3.27;;;2.90;;
6392;SDS011;3229;42.674;23.282;2022-11-25T08:58:56;4.33;;;2.60;;
6392;SDS011;3229;42.674;23.282;2022-11-25T09:01:25;3.00;;;2.77;;
6392;SDS011;3229;42.674;23.282;2022-11-25T09:03:53;3.57;;;2.50;;
6392;SDS011;3229;42.674;23.282;2022-11-25T09:06:21;3.03;;;2.80;;
6392;SDS011;3229;42.674;23.282;2022-11-25T09:08:49;3.03;;;2.67;;
6392;SDS011;3229;42.674;23.282;2022-11-25T09:11:16;3.20;;;2.90;;
6392;SDS011;3229;42.674;23.282;2022-11-25T09:13:43;2.97;;;2.77;;
6392;SDS011;3229;42.674;23.282;2022-11-25T09:16:10;4.03;;;3.07;;
6392;SDS011;3229;42.674;23.282;2022-11-25T09:18:38;5.60;;;3.33;;
6392;SDS011;3229;42.674;23.282;2022-11-25T09:21:08;3.13;;;2.93;;
6392;SDS011;3229;42.674;23.282;2022-11-25T09:23:37;3.17;;;2.87;;
6392;SDS011;3229;42.674;23.282;2022-11-25T09:26:05;3.53;;;2.83;;
6392;SDS011;3229;42.674;23.282;2022-11-25T09:28:33;3.33;;;2.60;;
6392;SDS011;3229;42.674;23.282;2022-11-25T09:31:05;3.10;;;2.90;;
6392;SDS011;3229;42.674;23.282;2022-11-25T09:33:32;3.53;;;3.07;;
6392;SDS011;3229;42.674;23.282;2022-11-25T09:36:01;4.03;;;3.23;;
6392;SDS011;3229;42.674;23.282;2022-11-25T09:38:30;3.60;;;3.10;;
6392;SDS011;3229;42.674;23.282;2022-11-25T09:40:58;3.50;;;3.20;;
6392;SDS011;3229;42.674;23.282;2022-11-25T09:43:32;4.30;;;3.00;;
6392;SDS011;3229;42.674;23.282;2022-11-25T09:46:30;2.97;;;2.77;;
6392;SDS011;3229;42.674;23.282;2022-11-25T09:49:16;6.27;;;3.23;;
6392;SDS011;3229;42.674;23.282;2022-11-25T09:52:00;3.30;;;3.00;;
6392;SDS011;3229;42.674;23.282;2022-11-25T09:54:36;5.83;;;3.20;;
6392;SDS011;3229;42.674;23.282;2022-11-25T09:57:12;3.10;;;2.80;;
6392;SDS011;3229;42.674;23.282;2022-11-25T09:59:49;4.07;;;3.00;;
6392;SDS011;3229;42.674;23.282;2022-11-25T10:02:26;3.40;;;2.50;;
6392;SDS011;3229;42.674;23.282;2022-11-25T10:04:57;4.07;;;2.73;;
6392;SDS011;3229;42.674;23.282;2022-11-25T10:07:35;3.33;;;3.03;;
6392;SDS011;3229;42.674;23.282;2022-11-25T10:10:05;3.23;;;2.80;;
6392;SDS011;3229;42.674;23.282;2022-11-25T10:12:41;4.20;;;3.00;;
6392;SDS011;3229;42.674;23.282;2022-11-25T10:15:11;3.80;;;3.30;;
6392;SDS011;3229;42.674;23.282;2022-11-25T10:17:44;8.80;;;3.13;;
6392;SDS011;3229;42.674;23.282;2022-11-25T10:20:16;3.43;;;2.93;;
6392;SDS011;3229;42.674;23.282;2022-11-25T10:22:48;3.33;;;3.03;;
6392;SDS011;3229;42.674;23.282;2022-11-25T10:25:17;4.30;;;2.73;;
6392;SDS011;3229;42.674;23.282;2022-11-25T10:27:48;3.87;;;2.73;;
6392;SDS011;3229;42.674;23.282;2022-11-25T10:30:19;3.23;;;2.87;;
6392;SDS011;3229;42.674;23.282;2022-11-25T10:32:50;4.23;;;2.67;;
6392;SDS011;3229;42.674;23.282;2022-11-25T10:35:20;7.17;;;2.60;;
6392;SDS011;3229;42.674;23.282;2022-11-25T10:37:56;4.00;;;2.80;;
6392;SDS011;3229;42.674;23.282;2022-11-25T10:40:25;2.70;;;2.50;;
6392;SDS011;3229;42.674;23.282;2022-11-25T10:42:52;3.93;;;2.80;;
6392;SDS011;3229;42.674;23.282;2022-11-25T10:45:19;2.80;;;2.60;;
6392;SDS011;3229;42.674;23.282;2022-11-25T10:50:54;4.53;;;2.80;;
6392;SDS011;3229;42.674;23.282;2022-11-25T10:53:30;2.93;;;2.63;;
6392;SDS011;3229;42.674;23.282;2022-11-25T10:55:58;2.60;;;2.37;;
6392;SDS011;3229;42.674;23.282;2022-11-25T10:58:31;3.37;;;2.40;;
6392;SDS011;3229;42.674;23.282;2022-11-25T11:01:04;6.67;;;2.20;;
6392;SDS011;3229;42.674;23.282;2022-11-25T11:03:33;3.43;;;2.53;;
6392;SDS011;3229;42.674;23.282;2022-11-25T11:06:00;2.90;;;2.50;;
6392;SDS011;3229;42.674;23.282;2022-11-25T11:08:27;3.53;;;2.40;;
6392;SDS011;3229;42.674;23.282;2022-11-25T11:11:08;2.77;;;2.57;;
6392;SDS011;3229;42.674;23.282;2022-11-25T11:13:39;2.80;;;2.40;;
6392;SDS011;3229;42.674;23.282;2022-11-25T11:16:19;4.77;;;3.07;;
6392;SDS011;3229;42.674;23.282;2022-11-25T11:18:51;4.77;;;2.67;;
6392;SDS011;3229;42.674;23.282;2022-11-25T11:21:22;2.80;;;2.50;;
6392;SDS011;3229;42.674;23.282;2022-11-25T11:23:55;7.23;;;2.87;;
6392;SDS011;3229;42.674;23.282;2022-11-25T11:26:25;4.13;;;2.67;;
6392;SDS011;3229;42.674;23.282;2022-11-25T11:28:56;2.93;;;2.60;;
6392;SDS011;3229;42.674;23.282;2022-11-25T11:31:26;5.80;;;2.53;;
6392;SDS011;3229;42.674;23.282;2022-11-25T11:33:57;3.77;;;2.83;;
6392;SDS011;3229;42.674;23.282;2022-11-25T11:36:37;3.83;;;2.90;;
6392;SDS011;3229;42.674;23.282;2022-11-25T11:39:23;2.70;;;2.50;;
6392;SDS011;3229;42.674;23.282;2022-11-25T11:41:59;3.37;;;3.03;;
6392;SDS011;3229;42.674;23.282;2022-11-25T11:44:34;4.37;;;2.93;;
6392;SDS011;3229;42.674;23.282;2022-11-25T11:47:26;2.77;;;2.57;;
6392;SDS011;3229;42.674;23.282;2022-11-25T11:52:51;5.40;;;2.70;;
6392;SDS011;3229;42.674;23.282;2022-11-25T11:55:42;4.17;;;2.87;;
6392;SDS011;3229;42.674;23.282;2022-11-25T11:58:19;3.47;;;2.80;;
6392;SDS011;3229;42.674;23.282;2022-11-25T12:01:01;6.67;;;3.43;;
6392;SDS011;3229;42.674;23.282;2022-11-25T12:03:39;4.30;;;2.90;;
6392;SDS011;3229;42.674;23.282;2022-11-25T12:06:14;3.03;;;2.73;;
6392;SDS011;3229;42.674;23.282;2022-11-25T12:08:43;5.27;;;2.57;;
6392;SDS011;3229;42.674;23.282;2022-11-25T12:11:17;3.47;;;3.07;;
6392;SDS011;3229;42.674;23.282;2022-11-25T12:13:49;3.40;;;2.60;;
6392;SDS011;3229;42.674;23.282;2022-11-25T12:16:24;4.93;;;3.07;;
6392;SDS011;3229;42.674;23.282;2022-11-25T12:18:58;3.10;;;2.80;;
6392;SDS011;3229;42.674;23.282;2022-11-25T12:21:35;3.30;;;2.80;;
6392;SDS011;3229;42.674;23.282;2022-11-25T12:24:12;4.23;;;2.93;;
6392;SDS011;3229;42.674;23.282;2022-11-25T12:26:48;2.77;;;2.57;;
6392;SDS011;3229;42.674;23.282;2022-11-25T12:29:23;4.27;;;2.83;;
6392;SDS011;3229;42.674;23.282;2022-11-25T12:31:57;3.10;;;2.73;;
6392;SDS011;3229;42.674;23.282;2022-11-25T12:34:34;5.30;;;2.97;;
6392;SDS011;3229;42.674;23.282;2022-11-25T12:37:09;3.80;;;3.37;;
6392;SDS011;3229;42.674;23.282;2022-11-25T12:39:43;3.07;;;2.73;;
6392;SDS011;3229;42.674;23.282;2022-11-25T12:42:19;4.07;;;3.20;;
6392;SDS011;3229;42.674;23.282;2022-11-25T12:44:52;3.23;;;2.93;;
6392;SDS011;3229;42.674;23.282;2022-11-25T12:47:25;3.53;;;3.20;;
6392;SDS011;3229;42.674;23.282;2022-11-25T12:49:53;4.17;;;3.23;;
6392;SDS011;3229;42.674;23.282;2022-11-25T12:55:15;3.67;;;3.30;;
6392;SDS011;3229;42.674;23.282;2022-11-25T13:00:54;4.43;;;3.07;;
6392;SDS011;3229;42.674;23.282;2022-11-25T13:03:42;3.77;;;3.20;;
6392;SDS011;3229;42.674;23.282;2022-11-25T13:06:44;3.13;;;2.70;;
6392;SDS011;3229;42.674;23.282;2022-11-25T13:09:41;3.67;;;3.20;;
6392;SDS011;3229;42.674;23.282;2022-11-25T13:12:21;3.63;;;3.33;;
6392;SDS011;3229;42.674;23.282;2022-11-25T13:15:23;4.10;;;3.33;;
6392;SDS011;3229;42.674;23.282;2022-11-25T13:17:55;4.23;;;3.20;;
6392;SDS011;3229;42.674;23.282;2022-11-25T13:20:32;4.57;;;3.27;;
6392;SDS011;3229;42.674;23.282;2022-11-25T13:23:19;4.00;;;3.53;;
6392;SDS011;3229;42.674;23.282;2022-11-25T13:28:53;3.70;;;3.40;;
6392;SDS011;3229;42.674;23.282;2022-11-25T13:31:24;4.47;;;3.73;;
6392;SDS011;3229;42.674;23.282;2022-11-25T13:34:02;5.20;;;3.73;;
6392;SDS011;3229;42.674;23.282;2022-11-25T13:36:44;3.77;;;3.40;;
6392;SDS011;3229;42.674;23.282;2022-11-25T13:39:13;4.83;;;3.77;;
6392;SDS011;3229;42.674;23.282;2022-11-25T13:41:42;3.90;;;3.50;;
6392;SDS011;3229;42.674;23.282;2022-11-25T13:44:19;4.77;;;3.47;;
6392;SDS011;3229;42.674;23.282;2022-11-25T13:46:51;3.57;;;3.27;;
6392;SDS011;3229;42.674;23.282;2022-11-25T13:49:22;4.83;;;3.53;;
6392;SDS011;3229;42.674;23.282;2022-11-25T13:51:53;5.10;;;3.50;;
6392;SDS011;3229;42.674;23.282;2022-11-25T13:54:24;5.00;;;3.93;;
6392;SDS011;3229;42.674;23.282;2022-11-25T13:56:58;4.27;;;3.67;;
6392;SDS011;3229;42.674;23.282;2022-11-25T13:59:47;3.97;;;3.63;;
6392;SDS011;3229;42.674;23.282;2022-11-25T14:02:32;4.37;;;3.97;;
6392;SDS011;3229;42.674;23.282;2022-11-25T14:05:03;4.17;;;3.77;;
6392;SDS011;3229;42.674;23.282;2022-11-25T14:07:42;4.30;;;3.90;;
6392;SDS011;3229;42.674;23.282;2022-11-25T14:10:20;4.70;;;4.30;;
6392;SDS011;3229;42.674;23.282;2022-11-25T14:13:00;5.13;;;3.83;;
6392;SDS011;3229;42.674;23.282;2022-11-25T14:15:59;4.37;;;3.97;;
6392;SDS011;3229;42.674;23.282;2022-11-25T14:18:48;4.50;;;4.13;;
6392;SDS011;3229;42.674;23.282;2022-11-25T14:21:43;4.33;;;3.93;;
6392;SDS011;3229;42.674;23.282;2022-11-25T14:24:21;6.37;;;4.13;;
6392;SDS011;3229;42.674;23.282;2022-11-25T14:26:55;3.97;;;3.67;;
6392;SDS011;3229;42.674;23.282;2022-11-25T14:29:24;4.37;;;3.93;;
6392;SDS011;3229;42.674;23.282;2022-11-25T14:31:58;5.10;;;4.00;;
6392;SDS011;3229;42.674;23.282;2022-11-25T14:34:32;4.80;;;4.10;;
6392;SDS011;3229;42.674;23.282;2022-11-25T14:37:06;5.17;;;4.77;;
6392;SDS011;3229;42.674;23.282;2022-11-25T14:39:36;6.40;;;5.00;;
6392;SDS011;3229;42.674;23.282;2022-11-25T14:42:08;4.57;;;4.17;;
6392;SDS011;3229;42.674;23.282;2022-11-25T14:44:39;7.03;;;4.40;;
6392;SDS011;3229;42.674;23.282;2022-11-25T14:47:19;4.93;;;4.53;;
6392;SDS011;3229;42.674;23.282;2022-11-25T14:49:50;5.00;;;4.57;;
6392;SDS011;3229;42.674;23.282;2022-11-25T14:52:18;5.00;;;4.40;;
6392;SDS011;3229;42.674;23.282;2022-11-25T14:54:47;6.30;;;4.40;;
6392;SDS011;3229;42.674;23.282;2022-11-25T14:57:23;5.13;;;4.63;;
6392;SDS011;3229;42.674;23.282;2022-11-25T14:59:51;5.47;;;4.97;;
6392;SDS011;3229;42.674;23.282;2022-11-25T15:02:25;5.40;;;4.90;;
6392;SDS011;3229;42.674;23.282;2022-11-25T15:05:01;7.20;;;4.90;;
6392;SDS011;3229;42.674;23.282;2022-11-25T15:07:33;5.70;;;5.17;;
6392;SDS011;3229;42.674;23.282;2022-11-25T15:10:01;6.20;;;4.77;;
6392;SDS011;3229;42.674;23.282;2022-11-25T15:12:29;5.67;;;4.87;;
6392;SDS011;3229;42.674;23.282;2022-11-25T15:14:57;5.30;;;4.80;;
6392;SDS011;3229;42.674;23.282;2022-11-25T15:17:28;6.77;;;4.77;;
6392;SDS011;3229;42.674;23.282;2022-11-25T15:20:02;7.77;;;5.70;;
6392;SDS011;3229;42.674;23.282;2022-11-25T15:22:36;6.20;;;5.60;;
6392;SDS011;3229;42.674;23.282;2022-11-25T15:25:05;8.83;;;5.20;;
6392;SDS011;3229;42.674;23.282;2022-11-25T15:27:41;6.67;;;4.70;;
6392;SDS011;3229;42.674;23.282;2022-11-25T15:30:19;5.87;;;5.17;;
6392;SDS011;3229;42.674;23.282;2022-11-25T15:32:47;6.63;;;5.50;;
6392;SDS011;3229;42.674;23.282;2022-11-25T15:35:17;5.63;;;4.83;;
6392;SDS011;3229;42.674;23.282;2022-11-25T15:37:46;7.10;;;5.10;;
6392;SDS011;3229;42.674;23.282;2022-11-25T15:40:29;5.20;;;4.70;;